Flight Track Log - Related Links

Times and Time Zones

All times are in EDT time to prevent confusion due to time zone crossing. See the SWA2403 flight status page for this flight to view local times or setup timezone preferences in your user account.

Time Position Orientation Groundspeed Altitude Reporting Facility
EDT Latitude Longitude Course Direction KTS MPH feet Rate Location/Type
Wed 06:37:09 PM 38.1450 -85.7344 175° South 159 183 1,800  Level FAA TRACON SMA TRACON (SMA)
Wed 06:37:29 PM 38.1311 -85.7328 175° South 162 186 2,300 1,350 Climbing FAA TRACON SMA TRACON (SMA)
Wed 06:37:49 PM 38.1158 -85.7331 181° South 174 200 2,700 1,950 Climbing FAA TRACON SMA TRACON (SMA)
Wed 06:38:09 PM 38.0950 -85.7406 196° South 201 231 3,600 2,927 Climbing FAA TRACON SMA TRACON (SMA)
Wed 06:38:30 PM 38.0822 -85.7556 223° Southwest 212 244 4,700 2,550 Climbing FAA TRACON SMA TRACON (SMA)
Wed 06:38:49 PM 38.0756 -85.7781 249° West 223 257 5,300 2,000 Climbing FAA TRACON SMA TRACON (SMA)
Wed 06:39:09 PM 38.0756 -85.8061 270° West 248 285 6,000 3,000 Climbing FAA TRACON SMA TRACON (SMA)
Wed 06:39:29 PM 38.0750 -85.8422 269° West 267 307 7,300 3,150 Climbing FAA TRACON SMA TRACON (SMA)
Wed 06:39:49 PM 38.0742 -85.8725 268° West 275 316 8,100 2,927 Climbing FAA TRACON SMA TRACON (SMA)
Wed 06:40:10 PM 38.0731 -85.9108 268° West 285 328 9,300 2,700 Climbing FAA TRACON SMA TRACON (SMA)
Wed 06:40:29 PM 38.0717 -85.9425 267° West 290 334 9,900 1,231 Climbing FAA TRACON SMA TRACON (SMA)
Wed 06:40:49 PM 38.0689 -85.9742 264° West 294 338 10,100 750 Climbing FAA TRACON SMA TRACON (SMA)
Wed 06:41:09 PM 38.0497 -86.0081 234° Southwest 317 365 10,400 1,800 Climbing FAA TRACON SMA TRACON (SMA)
Wed 06:41:29 PM 38.0233 -86.0197 199° South 333 383 11,300 2,700 Climbing FAA TRACON SMA TRACON (SMA)
Wed 06:41:49 PM 37.9947 -86.0239 187° South 336 387 12,200 2,550 Climbing FAA TRACON SMA TRACON (SMA)
Wed 06:42:09 PM 37.9653 -86.0275 186° South 342 394 13,000 2,780 Climbing FAA TRACON SMA TRACON (SMA)
Wed 06:42:30 PM 37.9292 -86.0408 196° South 352 405 14,100 2,850 Climbing FAA TRACON SMA TRACON (SMA)
Wed 06:42:49 PM 37.9056 -86.0642 218° Southwest 358 412 14,900 2,769 Climbing FAA TRACON SMA TRACON (SMA)
Wed 06:43:09 PM 37.8919 -86.0986 243° Southwest 358 412 15,900 3,150 Climbing FAA TRACON SMA TRACON (SMA)
Wed 06:43:29 PM 37.8872 -86.1461 263° West 358 412 17,000 2,850 Climbing FAA TRACON SMA TRACON (SMA)
Wed 06:43:49 PM 37.8856 -86.1850 267° West 359 413 17,800 2,634 Climbing FAA TRACON SMA TRACON (SMA)
Wed 06:44:10 PM 37.8828 -86.2342 266° West 362 417 18,800 2,700 Climbing FAA TRACON SMA TRACON (SMA)
Wed 06:44:29 PM 37.8811 -86.2742 267° West 367 422 19,600 2,462 Climbing FAA TRACON SMA TRACON (SMA)
Wed 06:44:49 PM 37.8786 -86.3144 266° West 370 426 20,400 2,550 Climbing FAA TRACON SMA TRACON (SMA)
Wed 06:45:09 PM 37.8761 -86.3650 266° West 374 430 21,300 2,233 Climbing FAA TRACON SMA TRACON (SMA)
Wed 06:45:32 PM 37.8739 -86.4064 266° West 379 436 22,000 2,045 Climbing FAA TRACON SMA TRACON (SMA)
Wed 06:45:53 PM 37.8708 -86.4583 266° West 384 442 22,800 2,211 Climbing FAA TRACON SMA TRACON (SMA)
Wed 06:46:10 PM 37.8683 -86.5006 266° West 390 449 23,400 1,833 Climbing FAA TRACON SMA TRACON (SMA)
Wed 06:46:29 PM 37.8658 -86.5433 266° West 395 455 23,900 1,846 Climbing FAA TRACON SMA TRACON (SMA)
Wed 06:46:49 PM 37.8642 -86.5869 267° West 399 459 24,600 1,800 Climbing FAA TRACON SMA TRACON (SMA)
Wed 06:47:29 PM 37.8592 -86.6861 266° West 408 470 25,700 1,574 Climbing FAA TRACON SMA TRACON (SMA)
Wed 06:47:50 PM 37.8569 -86.7311 266° West 413 475 26,200 1,500 Climbing FAA TRACON SMA TRACON (SMA)
Wed 06:48:09 PM 37.8539 -86.7764 265° West 417 480 26,700 1,714 Climbing FAA TRACON SMA TRACON (SMA)
Wed 06:48:32 PM 37.8514 -86.8333 267° West 422 486 27,400 1,773 Climbing FAA TRACON SMA TRACON (SMA)
Wed 06:48:53 PM 37.8469 -86.8906 264° West 424 488 28,000 1,263 Climbing FAA TRACON SMA TRACON (SMA)
Wed 06:49:10 PM 37.8467 -86.9136 269° West 426 490 28,200 1,378 Climbing FAA TRACON SMA TRACON (SMA)
Wed 06:50:07 PM 37.8347 -87.0533 264° West 430 495 29,700 1,831 Climbing Indianapolis Center
Wed 06:51:08 PM 37.8244 -87.2069 265° West 433 498 31,800 1,854 Climbing Indianapolis Center
Wed 06:52:10 PM 37.8147 -87.3583 265° West 432 497 33,500 1,500 Climbing Indianapolis Center
Wed 06:53:12 PM 37.8044 -87.5072 265° West 425 489 34,900 1,210 Climbing Indianapolis Center
Wed 06:54:14 PM 37.7942 -87.6542 265° West 419 482 36,000 532 Climbing Indianapolis Center
Wed 06:55:16 PM 37.7825 -87.8308 265° West 419 482 36,000  Level Indianapolis Center
Wed 06:56:17 PM 37.7719 -87.9797 265° West 421 484 36,000  Level Indianapolis Center
Wed 06:57:19 PM 37.7606 -88.1283 265° West 422 486 36,000  Level Indianapolis Center
Wed 06:58:21 PM 37.7500 -88.2764 265° West 422 486 36,000  Level Indianapolis Center
Wed 06:59:22 PM 37.7397 -88.4261 265° West 424 488 36,000  Level Indianapolis Center
Wed 07:00:13 PM 37.7289 -88.5458 264° West 424 488 36,000  Level Kansas City Center
Wed 07:01:15 PM 37.7181 -88.6981 265° West 430 495 36,000  Level Kansas City Center
Wed 07:02:15 PM 37.7067 -88.8481 265° West 434 499 36,000  Level Kansas City Center
Wed 07:03:19 PM 37.6928 -89.0272 264° West 431 496 36,000 192 Level Kansas City Center
Wed 07:04:20 PM 37.6811 -89.1756 264° West 428 493 36,400 836 Climbing Kansas City Center
Wed 07:05:21 PM 37.6689 -89.3219 264° West 425 489 37,700 774 Climbing Kansas City Center
Wed 07:06:24 PM 37.6575 -89.4567 264° West 419 482 38,000 145 Climbing Kansas City Center
Wed 07:07:25 PM 37.6456 -89.5992 264° West 414 476 38,000  Level Kansas City Center
Wed 07:08:26 PM 37.6322 -89.7431 263° West 413 475 38,000  Level Kansas City Center
Wed 07:09:27 PM 37.6169 -89.9144 264° West 410 472 38,000  Level Kansas City Center
Wed 07:10:30 PM 37.6039 -90.0575 263° West 411 473 38,000  Level Kansas City Center
Wed 07:11:31 PM 37.5906 -90.2000 263° West 410 472 38,000  Level Kansas City Center
Wed 07:12:32 PM 37.5783 -90.3422 264° West 410 472 38,000  Level Kansas City Center
Wed 07:13:35 PM 37.5644 -90.4833 263° West 406 467 38,000  Level Kansas City Center
Wed 07:14:37 PM 37.5517 -90.6253 264° West 407 468 38,000  Level Kansas City Center
Wed 07:15:37 PM 37.5383 -90.7633 263° West 407 468 38,000  Level Kansas City Center
Wed 07:16:39 PM 37.5203 -90.9350 262° West 409 471 38,000  Level Kansas City Center
Wed 07:17:39 PM 37.5067 -91.0778 263° West 411 473 38,000  Level Kansas City Center
Wed 07:18:41 PM 37.4917 -91.2250 263° West 417 480 38,000  Level Kansas City Center
Wed 07:19:43 PM 37.4758 -91.3725 262° West 420 483 38,000  Level Kansas City Center
Wed 07:20:45 PM 37.4625 -91.5169 263° West 420 483 38,000  Level Kansas City Center
Wed 07:21:46 PM 37.4467 -91.6653 262° West 421 484 38,000  Level Kansas City Center
Wed 07:22:49 PM 37.4322 -91.8133 263° West 423 487 38,000  Level Kansas City Center
Wed 07:23:50 PM 37.4167 -91.9633 263° West 425 489 38,000  Level Kansas City Center
Wed 07:24:51 PM 37.4006 -92.1156 262° West 430 495 38,000  Level Kansas City Center
Wed 07:25:54 PM 37.3836 -92.2667 262° West 433 498 38,000  Level Kansas City Center
Wed 07:26:53 PM 37.3681 -92.4164 263° West 431 496 38,000  Level Kansas City Center
Wed 07:27:57 PM 37.3486 -92.5928 262° West 425 489 38,000  Level Kansas City Center
Wed 07:28:57 PM 37.3328 -92.7403 262° West 423 487 38,000  Level Kansas City Center
Wed 07:29:59 PM 37.3156 -92.8856 262° West 421 484 38,000  Level Kansas City Center
Wed 07:30:59 PM 37.2994 -93.0319 262° West 421 484 38,000  Level Kansas City Center
Wed 07:32:03 PM 37.2828 -93.1747 262° West 418 481 38,000  Level Kansas City Center
Wed 07:33:03 PM 37.2669 -93.3183 262° West 416 479 38,000  Level Kansas City Center
Wed 07:34:04 PM 37.2492 -93.4617 261° West 415 478 38,000  Level Kansas City Center
Wed 07:35:08 PM 37.2317 -93.6044 261° West 414 476 38,000  Level Kansas City Center
Wed 07:36:08 PM 37.2147 -93.7461 262° West 411 473 38,000  Level Kansas City Center
Wed 07:37:09 PM 37.1986 -93.8875 262° West 410 472 38,000  Level Kansas City Center
Wed 07:38:11 PM 37.1778 -94.0533 261° West 403 464 38,000  Level Kansas City Center
Wed 07:39:14 PM 37.1622 -94.1736 261° West 401 461 38,000  Level Kansas City Center
Wed 07:40:15 PM 37.1444 -94.3128 261° West 404 465 38,000  Level Kansas City Center
Wed 07:41:16 PM 37.1233 -94.4847 261° West 413 475 38,000  Level Kansas City Center
Wed 07:42:17 PM 37.1050 -94.6261 261° West 413 475 38,000  Level Kansas City Center
Wed 07:43:19 PM 37.0858 -94.7644 260° West 407 468 38,000  Level Kansas City Center
Wed 07:44:20 PM 37.0683 -94.9019 261° West 403 464 38,000  Level Kansas City Center
Wed 07:45:24 PM 37.0503 -95.0383 261° West 400 460 38,000  Level Kansas City Center
Wed 07:47:24 PM 37.0144 -95.3058 261° West 392 451 38,000  Level Kansas City Center
Wed 07:48:28 PM 36.9958 -95.4381 260° West 390 449 38,000  Level Kansas City Center
Wed 07:49:29 PM 36.9744 -95.5967 260° West 388 447 38,000  Level Kansas City Center
Wed 07:50:30 PM 36.9558 -95.7281 260° West 385 443 38,000  Level Kansas City Center
Wed 07:51:32 PM 36.9369 -95.8578 260° West 383 441 38,000  Level Kansas City Center
Wed 07:52:33 PM 36.9194 -95.9856 260° West 378 435 38,000  Level Kansas City Center
Wed 07:53:34 PM 36.9011 -96.1092 260° West 369 425 38,000  Level Kansas City Center
Wed 07:54:36 PM 36.8844 -96.2317 260° West 362 417 38,000  Level Kansas City Center
Wed 07:55:38 PM 36.8669 -96.3542 260° West 360 414 38,000  Level Kansas City Center
Wed 07:56:38 PM 36.8447 -96.5003 259° West 358 412 38,000  Level Kansas City Center
Wed 07:57:42 PM 36.8303 -96.6256 262° West 362 417 38,000  Level Kansas City Center
Wed 07:58:43 PM 36.8236 -96.7511 266° West 363 418 38,000  Level Kansas City Center
Wed 07:59:44 PM 36.8167 -96.8764 266° West 364 419 38,000  Level Kansas City Center
Wed 08:00:45 PM 36.8153 -97.0022 269° West 364 419 38,000  Level Kansas City Center
Wed 08:01:47 PM 36.8456 -97.1442 285° West 378 435 38,000  Level Kansas City Center
Wed 08:02:48 PM 36.8717 -97.2672 285° West 381 438 38,000  Level Kansas City Center
Wed 08:03:50 PM 36.8972 -97.3950 284° West 380 437 38,000  Level Kansas City Center
Wed 08:04:51 PM 36.9086 -97.5264 276° West 377 434 38,000  Level Kansas City Center
Wed 08:05:51 PM 36.8972 -97.6533 264° West 374 430 38,000  Level Kansas City Center
Wed 08:06:54 PM 36.8861 -97.7850 264° West 376 433 38,000  Level Kansas City Center
Wed 08:07:57 PM 36.8764 -97.9158 265° West 378 435 38,000  Level Kansas City Center
Wed 08:08:58 PM 36.8647 -98.0456 264° West 378 435 38,000  Level Kansas City Center
Wed 08:10:00 PM 36.8547 -98.1764 265° West 377 434 38,000  Level Kansas City Center
Wed 08:11:00 PM 36.8428 -98.3333 265° West 377 434 38,000  Level Kansas City Center
Wed 08:12:02 PM 36.8314 -98.4628 264° West 377 434 38,000  Level Kansas City Center
Wed 08:13:04 PM 36.8186 -98.5925 263° West 376 433 38,000  Level Kansas City Center
Wed 08:14:04 PM 36.8072 -98.7239 264° West 377 434 38,000  Level Kansas City Center
Wed 08:15:07 PM 36.7958 -98.8558 264° West 380 437 38,000  Level Kansas City Center
Wed 08:16:06 PM 36.7842 -98.9892 264° West 382 440 38,000  Level Kansas City Center
Wed 08:17:10 PM 36.7725 -99.1272 264° West 391 450 38,000  Level Kansas City Center
Wed 08:18:12 PM 36.7597 -99.2592 263° West 388 447 38,000  Level Kansas City Center
Wed 08:19:13 PM 36.7450 -99.4158 263° West 381 438 38,000  Level Kansas City Center
Wed 08:20:15 PM 36.7333 -99.5467 264° West 381 438 38,000  Level Kansas City Center
Wed 08:21:16 PM 36.7206 -99.6772 263° West 381 438 38,000  Level Kansas City Center
Wed 08:22:16 PM 36.7089 -99.8067 264° West 378 435 38,000  Level Kansas City Center
Wed 08:23:19 PM 36.6969 -99.9358 263° West 376 433 38,000  Level Kansas City Center
Wed 08:24:21 PM 36.6847 -100.0644 263° West 375 432 38,000  Level Kansas City Center
Wed 08:25:22 PM 36.6711 -100.1942 263° West 376 433 38,000  Level Kansas City Center
Wed 08:26:24 PM 36.6586 -100.3214 263° West 373 429 38,000  Level Kansas City Center
Wed 08:27:24 PM 36.6442 -100.4653 263° West 371 427 38,000  Level Kansas City Center
Wed 08:28:26 PM 36.6311 -100.5889 263° West 374 430 38,000  Level Kansas City Center
Wed 08:29:26 PM 36.6156 -100.7308 262° West 372 428 38,000  Level Kansas City Center
Wed 08:30:28 PM 36.6119 -100.8561 268° West 376 433 38,000  Level Kansas City Center
Wed 08:31:29 PM 36.6083 -100.9997 268° West 372 428 38,000  Level Kansas City Center
Wed 08:32:30 PM 36.6039 -101.1225 267° West 371 427 38,000  Level Kansas City Center
Wed 08:33:33 PM 36.6014 -101.2411 269° West 368 423 38,000  Level Albuquerque Center
Wed 08:34:35 PM 36.5981 -101.3831 268° West 368 423 38,000  Level Albuquerque Center
Wed 08:35:37 PM 36.5936 -101.5044 267° West 367 422 38,000  Level Albuquerque Center
Wed 08:36:38 PM 36.5897 -101.6464 268° West 367 422 38,000  Level Albuquerque Center
Wed 08:37:40 PM 36.5850 -101.7694 267° West 369 425 38,000  Level Albuquerque Center
Wed 08:38:42 PM 36.5819 -101.8967 268° West 371 427 38,000  Level Albuquerque Center
Wed 08:39:44 PM 36.5772 -102.0228 267° West 368 423 38,000  Level Albuquerque Center
Wed 08:40:46 PM 36.5714 -102.1778 267° West 374 430 38,000  Level Albuquerque Center
Wed 08:41:48 PM 36.5672 -102.3075 268° West 376 433 38,000  Level Albuquerque Center
Wed 08:42:50 PM 36.5619 -102.4347 267° West 372 428 38,000  Level Albuquerque Center
Wed 08:43:52 PM 36.5569 -102.5622 267° West 371 427 38,000  Level Albuquerque Center
Wed 08:44:54 PM 36.5528 -102.6917 268° West 375 432 38,000  Level Albuquerque Center
Wed 08:45:56 PM 36.5467 -102.8167 267° West 369 425 38,000  Level Albuquerque Center
Wed 08:46:57 PM 36.5422 -102.9617 268° West 366 421 38,000  Level Albuquerque Center
Wed 08:47:59 PM 36.5367 -103.0875 267° West 364 419 38,000  Level Albuquerque Center
Wed 08:49:01 PM 36.5314 -103.2122 267° West 361 415 38,000  Level Albuquerque Center
Wed 08:50:03 PM 36.5261 -103.3367 267° West 359 413 38,000  Level Albuquerque Center
Wed 08:51:05 PM 36.5192 -103.4800 267° West 355 409 38,000  Level Albuquerque Center
Wed 08:52:07 PM 36.5131 -103.6072 267° West 362 417 38,000  Level Albuquerque Center
Wed 08:53:09 PM 36.5067 -103.7356 266° West 368 423 38,000  Level Albuquerque Center
Wed 08:54:11 PM 36.5011 -103.8628 267° West 368 423 38,000  Level Albuquerque Center
Wed 08:55:13 PM 36.4947 -103.9914 267° West 369 425 38,000  Level Albuquerque Center
Wed 08:56:15 PM 36.4878 -104.1169 266° West 365 420 38,000  Level Albuquerque Center
Wed 08:57:17 PM 36.4808 -104.2414 266° West 362 417 38,000  Level Albuquerque Center
Wed 08:58:19 PM 36.4739 -104.3881 267° West 363 418 38,000  Level Albuquerque Center
Wed 08:59:20 PM 36.4661 -104.5111 266° West 358 412 38,000  Level Albuquerque Center
Wed 09:00:22 PM 36.4600 -104.6364 267° West 360 414 38,000  Level Albuquerque Center
Wed 09:01:24 PM 36.4531 -104.7625 266° West 362 417 38,000  Level Albuquerque Center
Wed 09:02:26 PM 36.4453 -104.8906 266° West 367 422 38,000  Level Albuquerque Center
Wed 09:03:28 PM 36.4381 -105.0153 266° West 364 419 38,000  Level Albuquerque Center
Wed 09:04:30 PM 36.4306 -105.1422 266° West 365 420 38,000  Level Albuquerque Center
Wed 09:05:32 PM 36.4219 -105.2742 265° West 376 433 38,000  Level Albuquerque Center
Wed 09:06:33 PM 36.4128 -105.4256 266° West 377 434 38,000  Level Albuquerque Center
Wed 09:07:35 PM 36.4044 -105.5375 265° West 369 425 38,000  Level Albuquerque Center
Wed 09:08:37 PM 36.3969 -105.6642 266° West 368 423 38,000  Level Albuquerque Center
Wed 09:09:39 PM 36.3883 -105.7911 265° West 369 425 38,000  Level Albuquerque Center
Wed 09:10:41 PM 36.3800 -105.9489 266° West 380 437 38,000  Level Albuquerque Center
Wed 09:11:43 PM 36.3711 -106.0792 265° West 380 437 38,000  Level Albuquerque Center
Wed 09:12:44 PM 36.3622 -106.2061 265° West 380 437 38,000  Level Albuquerque Center
Wed 09:13:46 PM 36.3514 -106.3525 265° West 381 438 38,000  Level Albuquerque Center
Wed 09:14:48 PM 36.3422 -106.4758 265° West 377 434 38,000  Level Albuquerque Center
Wed 09:15:50 PM 36.3322 -106.6225 265° West 381 438 38,000  Level Albuquerque Center
Wed 09:16:52 PM 36.3228 -106.7483 265° West 383 441 38,000  Level Albuquerque Center
Wed 09:17:53 PM 36.3139 -106.8761 265° West 386 444 38,000  Level Albuquerque Center
Wed 09:18:55 PM 36.3017 -107.0261 264° West 390 449 38,000  Level Albuquerque Center
Wed 09:19:57 PM 36.2922 -107.1542 265° West 390 449 38,000  Level Albuquerque Center
Wed 09:20:59 PM 36.2806 -107.3031 264° West 389 448 38,000  Level Albuquerque Center
Wed 09:22:01 PM 36.2714 -107.4325 265° West 393 452 38,000  Level Albuquerque Center
Wed 09:23:02 PM 36.2586 -107.5808 264° West 389 448 38,000  Level Albuquerque Center
Wed 09:24:04 PM 36.2486 -107.7097 265° West 391 450 38,000  Level Albuquerque Center
Wed 09:25:06 PM 36.2358 -107.8611 264° West 395 455 38,000  Level Albuquerque Center
Wed 09:25:30 PM 36.2322 -107.9025 264° West 395 455 38,000  Level Denver Center
Wed 09:26:31 PM 36.2217 -108.0333 264° West 396 456 38,000  Level Denver Center
Wed 09:27:33 PM 36.2078 -108.1844 264° West 396 456 38,000  Level Denver Center
Wed 09:28:34 PM 36.1969 -108.3119 264° West 392 451 38,000  Level Denver Center
Wed 09:29:35 PM 36.1844 -108.4608 264° West 390 449 38,000  Level Denver Center
Wed 09:30:37 PM 36.1731 -108.5869 264° West 388 447 38,000  Level Denver Center
Wed 09:31:38 PM 36.1600 -108.7336 264° West 387 445 38,000  Level Denver Center
Wed 09:32:39 PM 36.1483 -108.8561 263° West 384 442 38,000  Level Denver Center
Wed 09:33:41 PM 36.1356 -108.9983 264° West 384 442 38,000  Level Denver Center
Wed 09:34:42 PM 36.1236 -109.1211 263° West 381 438 38,000  Level Denver Center
Wed 09:35:23 PM 36.1158 -109.2044 263° West 380 437 38,000  Level Albuquerque Center
Wed 09:36:45 PM 36.0986 -109.3944 264° West 387 445 38,000  Level Denver Center
Wed 09:37:46 PM 36.0864 -109.5200 263° West 386 444 38,000  Level Denver Center
Wed 09:38:47 PM 36.0728 -109.6647 263° West 381 438 38,000  Level Denver Center
Wed 09:39:48 PM 36.0608 -109.7889 263° West 381 438 38,000  Level Denver Center
Wed 09:40:50 PM 36.0472 -109.9142 262° West 384 442 38,000  Level Denver Center
Wed 09:41:51 PM 36.0328 -110.0578 263° West 379 436 38,000  Level Denver Center
Wed 09:42:52 PM 36.0194 -110.1967 263° West 382 440 38,000  Level Denver Center
Wed 09:43:54 PM 36.0050 -110.3278 262° West 386 444 38,000 -98 Level Denver Center
Wed 09:44:55 PM 35.9917 -110.4606 263° West 388 447 37,800 -590 Descending Denver Center
Wed 09:45:56 PM 35.9775 -110.5908 262° West 385 443 36,800 -976 Descending Denver Center
Wed 09:46:58 PM 35.9633 -110.7228 262° West 386 444 35,800 -976 Descending Denver Center
Wed 09:47:59 PM 35.9489 -110.8542 262° West 387 445 34,800 -984 Descending Denver Center
Wed 09:49:00 PM 35.9347 -110.9828 262° West 382 440 33,800 -984 Descending Denver Center
Wed 09:50:01 PM 35.9225 -111.1044 263° West 365 420 32,800 -976 Descending Denver Center
Wed 09:51:03 PM 35.9078 -111.2250 261° West 358 412 31,800 -976 Descending Denver Center
Wed 09:52:04 PM 35.8947 -111.3422 262° West 350 403 30,800 -885 Descending Denver Center
Wed 09:53:05 PM 35.8803 -111.4828 263° West 346 398 30,000 -390 Descending Denver Center
Wed 09:54:07 PM 35.8656 -111.5992 261° West 344 396 30,000  Level Denver Center
Wed 09:55:08 PM 35.8625 -111.7183 268° West 346 398 30,000  Level Denver Center
Wed 09:55:24 PM 35.8603 -111.7181 174° South 342 394 30,000  Level Los Angeles Center
Wed 09:56:26 PM 35.8553 -111.8706 268° West 367 422 30,000  Level Los Angeles Center
Wed 09:57:28 PM 35.8503 -111.9964 267° West 369 425 30,000  Level Los Angeles Center
Wed 09:58:29 PM 35.8461 -112.1458 268° West 365 420 30,000  Level Los Angeles Center
Wed 09:59:43 PM 35.8408 -112.2697 267° West 365 420 30,000  Level Los Angeles Center
Wed 10:00:45 PM 35.8361 -112.4181 268° West 363 418 30,000  Level Los Angeles Center
Wed 10:01:46 PM 35.8300 -112.5411 267° West 363 418 30,000  Level Los Angeles Center
Wed 10:02:48 PM 35.8261 -112.6636 268° West 362 417 30,000  Level Los Angeles Center
Wed 10:03:49 PM 35.8203 -112.7869 267° West 364 419 30,000  Level Los Angeles Center
Wed 10:04:51 PM 35.8133 -112.9347 267° West 364 419 30,000  Level Los Angeles Center
Wed 10:05:53 PM 35.8086 -113.0586 267° West 366 421 30,000  Level Los Angeles Center
Wed 10:06:54 PM 35.8033 -113.1842 267° West 371 427 30,000  Level Los Angeles Center
Wed 10:07:56 PM 35.7975 -113.3103 267° West 372 428 30,000 -1,024 Level Los Angeles Center
Wed 10:08:57 PM 35.7914 -113.4350 267° West 370 426 27,900 -2,098 Descending Los Angeles Center
Wed 10:09:59 PM 35.7856 -113.5547 267° West 356 410 25,700 -2,177 Descending Los Angeles Center
Wed 10:11:01 PM 35.7800 -113.6853 267° West 352 405 23,400 -2,146 Descending Los Angeles Center
Wed 10:12:02 PM 35.7736 -113.8025 266° West 344 396 21,300 -2,049 Descending Los Angeles Center
Wed 10:13:04 PM 35.7678 -113.9181 266° West 338 389 19,200 -2,195 Descending Los Angeles Center
Wed 10:14:05 PM 35.7600 -114.0569 266° West 338 389 16,800 -2,268 Descending Los Angeles Center
Wed 10:14:26 PM 35.7581 -114.0892 266° West 338 389 16,100 -1,971 Descending Los Angeles Center
Wed 10:15:15 PM 35.7542 -114.1861 267° West 336 387 14,500 -1,748 Descending Los Angeles Center
Wed 10:16:09 PM 35.7489 -114.2800 266° West 323 372 13,100 -1,241 Descending Los Angeles Center
Wed 10:17:11 PM 35.8036 -114.3592 310° West 300 345 12,100 -976 Descending Los Angeles Center
Wed 10:18:12 PM 35.8600 -114.4361 312° West 300 345 11,100 -976 Descending Los Angeles Center
Wed 10:19:14 PM 35.9158 -114.5128 312° West 301 346 10,100 -823 Descending Los Angeles Center
Wed 10:20:16 PM 35.9678 -114.5828 313° West 283 326 9,400 -919 Descending Los Angeles Center
Wed 10:21:18 PM 36.0275 -114.6622 313° West 267 307 8,200 -683 Descending Los Angeles Center
Wed 10:22:19 PM 36.0736 -114.7294 310° West 261 300 8,000 -537 Descending Los Angeles Center
Wed 10:23:21 PM 36.0747 -114.8169 271° West 258 297 7,100 -1,220 Descending Los Angeles Center
Wed 10:24:22 PM 36.0731 -114.9164 269° West 259 298 5,500 -1,426 Descending Los Angeles Center
Wed 10:25:23 PM 36.0747 -114.9931 272° West 210 242 4,200 -1,131 Descending Los Angeles Center
Wed 10:26:24 PM 36.0736 -115.0572 269° West 185 213 3,200 -934 Descending Los Angeles Center
Wed 10:27:25 PM 36.0742 -115.1103 271° West 153 176 2,300 -885 Descending Los Angeles Center
Wed 10:29:00 PM 36.0667 -115.1500 270° West  Level FlightAware Approximate
Wed 10:36:00 PM 36.0801 -115.1523 270° West  Level Estimated

Login

Don't have an account? Register now (free) for customized features, flight alerts, and more!